SMBG weather

Bakhuys Airstrip
Bakhuys, Sipaliwini, Suriname

Public forecast

Using degrees Celsius for public forecast. Weather courtesy of forecast.io.

Closest aviation weather report (METAR) to Bakhuys Airstrip

Report is more than 6 hours old.

Closest report is Nieuw Nickerie Airport, 72.5 nm (134.2 km) NNW. Retrieved 2015/12/08 09:00 UTC (4 years ago):

SMNI 080900Z 09008KT 9999 FEW015 26/24 Q1012 NOSIG

Closest aviation forecast (TAF) to Bakhuys Airstrip

Forecast is more than 12 hours old.

Closest forecast is Nieuw Nickerie Airport, 72.5 nm (134.2 km) NNW. Retrieved 2009/09/11 16:00 UTC (10 years ago):

TAF SMNI 111600Z 1118/1218 12010KT 9999 SCT022 TX31/1218Z TN25/1209Z PROB40 TEMPO 1119/1122 5000 TSRA FEW018CB SCT020